createdAt,value
2019-05-18T00:00:45.630Z,29.6
2019-05-18T00:01:59.771Z,32.5
2019-05-18T00:03:13.931Z,30.7
2019-05-18T00:04:28.141Z,28.6
2019-05-18T00:05:42.439Z,32.4
2019-05-18T00:06:56.553Z,28.2
2019-05-18T00:08:10.758Z,28.9
2019-05-18T00:09:24.989Z,30.3
2019-05-18T00:10:39.181Z,29.4
2019-05-18T00:11:53.380Z,31.1
2019-05-18T00:13:07.619Z,29
2019-05-18T00:14:21.794Z,32.2
2019-05-18T00:15:36.018Z,32.8
2019-05-18T00:16:50.213Z,30.6
2019-05-18T00:18:04.413Z,29.7
2019-05-18T00:19:18.769Z,30.2
2019-05-18T00:20:32.817Z,30.8
2019-05-18T00:21:47.042Z,32.8
2019-05-18T00:23:01.220Z,31.7
2019-05-18T00:24:15.411Z,34.4
2019-05-18T00:25:37.317Z,34
2019-05-18T00:26:43.803Z,34.4
2019-05-18T00:27:58.017Z,35.7
2019-05-18T00:29:12.225Z,36.8
2019-05-18T00:30:26.418Z,38.2
2019-05-18T00:31:40.623Z,39
2019-05-18T00:32:54.835Z,39.1
2019-05-18T00:34:09.046Z,37.9
2019-05-18T00:35:23.303Z,42
2019-05-18T00:36:37.755Z,40.2
2019-05-18T00:37:51.746Z,39.5
2019-05-18T00:39:05.835Z,42.3
2019-05-18T00:40:20.172Z,40.2
2019-05-18T00:41:34.320Z,43.3
2019-05-18T00:42:48.435Z,38
2019-05-18T00:44:02.626Z,39.2
2019-05-18T00:45:16.841Z,39.6
2019-05-18T00:46:31.031Z,37.9
2019-05-18T00:47:45.246Z,41.2
2019-05-18T00:48:59.429Z,41.6
2019-05-18T00:50:13.737Z,46.9
2019-05-18T00:51:27.838Z,46.7
2019-05-18T00:52:42.154Z,46.1
2019-05-18T00:53:56.334Z,47.9
2019-05-18T00:55:10.436Z,45.1
2019-05-18T00:56:24.620Z,45.6
2019-05-18T00:57:38.889Z,42.9
2019-05-18T00:58:53.014Z,41.9
2019-05-18T01:00:07.242Z,41.4
2019-05-18T01:01:21.526Z,42
2019-05-18T01:02:35.640Z,43.3
2019-05-18T01:03:49.833Z,43.1
2019-05-18T01:05:04.041Z,41.7
2019-05-18T01:06:18.327Z,41.8
2019-05-18T01:07:32.588Z,43.9
2019-05-18T01:08:46.661Z,40.1
2019-05-18T01:10:00.868Z,43.6
2019-05-18T01:11:15.073Z,37.3
2019-05-18T01:12:29.396Z,43.4
2019-05-18T01:13:43.515Z,39.3
2019-05-18T01:14:57.813Z,41.8
2019-05-18T01:16:11.995Z,37.3
2019-05-18T01:17:26.127Z,38.7
2019-05-18T01:18:40.548Z,42.4
2019-05-18T01:19:54.530Z,41.5
2019-05-18T01:21:08.724Z,38.7
2019-05-18T01:22:22.995Z,40.3
2019-05-18T01:23:37.157Z,37
2019-05-18T01:24:51.369Z,41.4
2019-05-18T01:26:05.556Z,40.7
2019-05-18T01:27:19.769Z,40.1
2019-05-18T01:28:33.974Z,39.2
2019-05-18T01:29:48.181Z,40.5
2019-05-18T01:31:02.523Z,43.9
2019-05-18T01:32:16.691Z,42.5
2019-05-18T01:33:30.822Z,46.2
2019-05-18T01:34:45.020Z,47.5
2019-05-18T01:35:59.217Z,42.6
2019-05-18T01:37:13.549Z,45.7
2019-05-18T01:38:27.638Z,44.3
2019-05-18T01:39:41.839Z,46.3
2019-05-18T01:40:56.039Z,43.3
2019-05-18T01:42:10.245Z,45.8
2019-05-18T01:43:24.537Z,43.9
2019-05-18T01:44:38.873Z,44.7
2019-05-18T01:45:52.975Z,45.4
2019-05-18T01:47:07.094Z,46.9
2019-05-18T01:48:21.301Z,51.5
2019-05-18T01:49:35.520Z,51.5
2019-05-18T01:50:49.743Z,50.2
2019-05-18T01:52:03.987Z,48.3
2019-05-18T01:53:18.159Z,50.3
2019-05-18T01:54:32.398Z,49.2
2019-05-18T01:55:46.684Z,49
2019-05-18T01:57:00.916Z,53.7
2019-05-18T01:58:15.003Z,56.1
2019-05-18T01:59:29.206Z,50.3
2019-05-18T02:00:43.413Z,52.7
2019-05-18T02:01:57.677Z,51.8
2019-05-18T02:03:11.851Z,55.3
2019-05-18T02:04:26.049Z,48.5
2019-05-18T02:05:40.278Z,52.6
2019-05-18T02:06:54.455Z,49.6
2019-05-18T02:08:08.761Z,49
2019-05-18T02:09:22.894Z,51.5
2019-05-18T02:10:37.088Z,50.4
2019-05-18T02:11:51.477Z,50.6
2019-05-18T02:13:05.647Z,54.3
2019-05-18T02:14:19.713Z,52.6
2019-05-18T02:15:33.929Z,48.2
2019-05-18T02:16:48.142Z,50.4
2019-05-18T02:18:02.350Z,48.6
2019-05-18T02:19:16.655Z,47.9
2019-05-18T02:20:30.882Z,51.3
2019-05-18T02:21:45.126Z,49
2019-05-18T02:22:59.213Z,52.7
2019-05-18T02:24:13.423Z,52.5
2019-05-18T02:25:30.908Z,49.2
2019-05-18T02:26:41.853Z,53.4
2019-05-18T02:27:56.140Z,52.8
2019-05-18T02:29:10.275Z,48.2
2019-05-18T02:30:24.526Z,57.8
2019-05-18T02:31:38.713Z,58.3
2019-05-18T02:32:52.922Z,52.8
2019-05-18T02:34:07.276Z,54.5
2019-05-18T02:35:21.342Z,60.8
2019-05-18T02:36:35.569Z,56.9
2019-05-18T02:37:49.781Z,57.6
2019-05-18T02:39:03.988Z,62
2019-05-18T02:40:18.193Z,60.7
2019-05-18T02:41:32.520Z,60.5
2019-05-18T02:42:46.625Z,61.6
2019-05-18T02:44:00.879Z,56.7
2019-05-18T02:45:15.141Z,55.1
2019-05-18T02:46:29.247Z,53.5
2019-05-18T02:47:43.517Z,64.9
2019-05-18T02:48:57.677Z,62.8
2019-05-18T02:50:11.885Z,66.3
2019-05-18T02:51:26.099Z,56.6
2019-05-18T02:52:40.331Z,58.5
2019-05-18T02:53:54.509Z,54.8
2019-05-18T02:55:08.774Z,54.3
2019-05-18T02:56:22.932Z,48.7
2019-05-18T02:57:37.240Z,51
2019-05-18T02:58:51.545Z,52.2
2019-05-18T03:00:05.566Z,54.7
2019-05-18T03:01:19.766Z,54.5
2019-05-18T03:02:33.986Z,56.7
2019-05-18T03:03:48.381Z,52.3
2019-05-18T03:05:02.406Z,55
2019-05-18T03:06:16.771Z,53.7
2019-05-18T03:07:30.838Z,55.9
2019-05-18T03:08:45.062Z,66.5
2019-05-18T03:09:59.357Z,61.2
2019-05-18T03:11:13.504Z,63.9
2019-05-18T03:12:27.693Z,54.6
2019-05-18T03:13:42.002Z,54.1
2019-05-18T03:14:56.288Z,59.3
2019-05-18T03:16:10.327Z,54
2019-05-18T03:17:24.537Z,53.4
2019-05-18T03:18:38.787Z,59.7
2019-05-18T03:19:53.107Z,60.5
2019-05-18T03:21:07.173Z,67
2019-05-18T03:22:21.582Z,60
2019-05-18T03:23:35.606Z,59
2019-05-18T03:24:49.809Z,61.4
2019-05-18T03:26:04.016Z,62.1
2019-05-18T03:27:18.226Z,55.8
2019-05-18T03:28:32.535Z,58.2
2019-05-18T03:29:46.642Z,62.6
2019-05-18T03:31:00.860Z,60.5
2019-05-18T03:32:15.049Z,66.2
2019-05-18T03:33:29.256Z,61.1
2019-05-18T03:34:43.595Z,66.7
2019-05-18T03:35:57.688Z,61.8
2019-05-18T03:37:11.899Z,63.6
2019-05-18T03:38:26.105Z,64
2019-05-18T03:39:40.309Z,56.4
2019-05-18T03:40:54.527Z,59
2019-05-18T03:42:08.842Z,54.6
2019-05-18T03:43:22.997Z,52.6
2019-05-18T03:44:37.261Z,62.1
2019-05-18T03:45:51.341Z,56.3
2019-05-18T03:47:05.644Z,58.8
2019-05-18T03:48:19.782Z,58.5
2019-05-18T03:49:33.974Z,53.6
2019-05-18T03:50:48.299Z,55.4
2019-05-18T03:52:02.484Z,60.4
2019-05-18T03:53:16.605Z,54.3
2019-05-18T03:54:30.816Z,54.4
2019-05-18T03:55:45.025Z,51.4
2019-05-18T03:56:59.239Z,54.5
2019-05-18T03:58:13.433Z,57.1
2019-05-18T03:59:27.756Z,55.3
2019-05-18T04:00:41.845Z,61.8
2019-05-18T04:01:56.038Z,56.7
2019-05-18T04:03:10.249Z,50.2
2019-05-18T04:04:24.450Z,53.4
2019-05-18T04:05:38.680Z,56.8
2019-05-18T04:06:52.907Z,52.6
2019-05-18T04:08:07.066Z,48.5
2019-05-18T04:09:21.288Z,49.9
2019-05-18T04:10:35.540Z,50.3
2019-05-18T04:11:49.893Z,45.9
2019-05-18T04:13:03.901Z,47.9
2019-05-18T04:14:18.072Z,44.6
2019-05-18T04:15:32.269Z,46.8
2019-05-18T04:16:46.481Z,46.8
2019-05-18T04:18:00.774Z,49
2019-05-18T04:19:14.875Z,42.6
2019-05-18T04:20:29.185Z,48
2019-05-18T04:21:43.286Z,45.6
2019-05-18T04:22:57.477Z,45
2019-05-18T04:24:11.787Z,46.5
2019-05-18T04:25:25.891Z,42.7
2019-05-18T04:26:40.112Z,47.2
2019-05-18T04:27:54.348Z,46.1
2019-05-18T04:29:08.507Z,45.6
2019-05-18T04:30:22.750Z,45.3
2019-05-18T04:31:36.918Z,44.1
2019-05-18T04:32:51.122Z,45.8
2019-05-18T04:34:05.325Z,43.2
2019-05-18T04:35:19.545Z,40
2019-05-18T04:36:33.829Z,36.6
2019-05-18T04:37:47.941Z,34.1
2019-05-18T04:39:02.149Z,30.7
2019-05-18T04:40:16.487Z,29.3
2019-05-18T04:41:30.598Z,27.3
2019-05-18T04:42:44.752Z,23.6
2019-05-18T04:43:58.967Z,24.1
2019-05-18T04:45:13.122Z,22.5
2019-05-18T04:46:27.335Z,21.2
2019-05-18T04:47:41.599Z,21
2019-05-18T04:48:55.797Z,21.4
2019-05-18T04:50:09.907Z,20.8
2019-05-18T04:51:24.069Z,21.3
2019-05-18T04:52:38.326Z,20
2019-05-18T04:53:52.455Z,19.7
2019-05-18T04:55:06.981Z,20.2
2019-05-18T04:56:20.773Z,22.2
2019-05-18T04:57:34.951Z,19.8
2019-05-18T04:58:49.137Z,20.3
2019-05-18T05:00:03.343Z,30.1
2019-05-18T05:01:17.599Z,19.6
2019-05-18T05:02:31.674Z,18.5
2019-05-18T05:03:45.869Z,19
2019-05-18T05:05:00.154Z,19.5
2019-05-18T05:06:14.216Z,18.6
2019-05-18T05:07:28.411Z,18.9
2019-05-18T05:08:42.580Z,18.3
2019-05-18T05:09:56.752Z,19.4
2019-05-18T05:11:10.937Z,19.8
2019-05-18T05:12:25.207Z,20.4
2019-05-18T05:13:39.328Z,19.3
2019-05-18T05:14:53.453Z,19.7
2019-05-18T05:16:07.605Z,19.3
2019-05-18T05:17:21.843Z,20
2019-05-18T05:19:50.168Z,19.7
2019-05-18T05:21:04.227Z,19.9
2019-05-18T05:22:18.399Z,19.6
2019-05-18T05:23:32.545Z,19.7
2019-05-18T05:24:46.824Z,22.7
2019-05-18T05:26:00.956Z,19.5
2019-05-18T05:27:15.058Z,18.1
2019-05-18T05:28:29.315Z,19.8
2019-05-18T05:29:43.383Z,20.2
2019-05-18T05:30:57.533Z,20.7
2019-05-18T05:32:12.475Z,20.3
2019-05-18T05:33:25.932Z,19
2019-05-18T05:34:40.089Z,20.4
2019-05-18T05:35:54.271Z,19.3
2019-05-18T05:37:08.350Z,19.6
2019-05-18T05:38:22.649Z,18.8
2019-05-18T05:39:36.659Z,19
2019-05-18T05:40:50.823Z,19.2
2019-05-18T05:42:04.986Z,20.5
2019-05-18T05:44:33.305Z,19.2
2019-05-18T05:45:47.557Z,19.1
2019-05-18T05:47:01.705Z,20.4
2019-05-18T05:48:15.768Z,19.7
2019-05-18T05:49:30.002Z,18.8
2019-05-18T05:50:44.166Z,18.7
2019-05-18T05:51:58.220Z,18.8
2019-05-18T05:53:12.371Z,18.4
2019-05-18T05:54:26.539Z,19.7
2019-05-18T05:56:54.913Z,18.9
2019-05-18T05:58:08.943Z,18.8
2019-05-18T05:59:23.075Z,18.6
2019-05-18T06:00:37.214Z,18.8
2019-05-18T06:01:51.455Z,19.4
2019-05-18T06:03:05.582Z,19.8
2019-05-18T06:04:21.106Z,18.5
2019-05-18T06:05:34.178Z,19.1
2019-05-18T06:06:47.902Z,17.6
2019-05-18T06:09:16.273Z,17
2019-05-18T06:10:30.313Z,18.4
2019-05-18T06:11:44.559Z,19.4
2019-05-18T06:12:58.571Z,19.5
2019-05-18T06:14:12.690Z,18.8
2019-05-18T06:15:27.409Z,18.7
2019-05-18T06:16:40.968Z,18.6
2019-05-18T06:17:55.096Z,18.7
2019-05-18T06:19:09.229Z,18.6
2019-05-18T06:20:23.375Z,18.2
2019-05-18T06:21:37.709Z,18.5
2019-05-18T06:22:51.674Z,18.2
2019-05-18T06:24:05.740Z,18.9
2019-05-18T06:25:19.978Z,17.8
2019-05-18T06:26:33.954Z,18.6
2019-05-18T06:27:48.165Z,18.6
2019-05-18T06:29:02.190Z,17.8
2019-05-18T06:30:16.343Z,19.3
2019-05-18T06:31:33.928Z,17.7
2019-05-18T06:32:44.544Z,17.3
2019-05-18T06:33:58.749Z,17.2
2019-05-18T06:35:12.775Z,18.4
2019-05-18T06:36:26.879Z,18.5
2019-05-18T06:37:41.040Z,17.3
2019-05-18T06:38:56.269Z,17.5
2019-05-18T06:40:09.282Z,17
2019-05-18T06:41:23.400Z,17.6
2019-05-18T06:42:37.520Z,18
2019-05-18T06:43:51.592Z,17.8
2019-05-18T06:46:19.745Z,17.1
2019-05-18T06:47:33.851Z,17.5
2019-05-18T06:48:48.171Z,17.3
2019-05-18T06:50:02.072Z,17.1
2019-05-18T06:51:16.171Z,18.2
2019-05-18T06:52:30.381Z,17
2019-05-18T06:53:44.359Z,17.7
2019-05-18T06:55:03.322Z,16.8
2019-05-18T06:56:12.648Z,17.8
2019-05-18T06:58:40.742Z,17.8
2019-05-18T06:59:54.841Z,17.2
2019-05-18T07:01:08.924Z,17.5
2019-05-18T07:02:23.041Z,16.8
2019-05-18T07:03:37.124Z,16.6
2019-05-18T07:04:51.315Z,16.7
2019-05-18T07:06:05.313Z,17.2
2019-05-18T07:07:19.403Z,17.3
2019-05-18T07:08:33.520Z,16.9
2019-05-18T07:11:01.855Z,16.6
2019-05-18T07:12:15.764Z,17.3
2019-05-18T07:13:29.915Z,16.2
2019-05-18T07:14:43.964Z,16.7
2019-05-18T07:15:58.057Z,16.7
2019-05-18T07:17:12.245Z,16
2019-05-18T07:18:26.418Z,15.3
2019-05-18T07:19:40.383Z,15.1
2019-05-18T07:20:54.474Z,14.9
2019-05-18T07:22:08.579Z,16.4
2019-05-18T07:23:22.669Z,15.5
2019-05-18T07:24:36.741Z,14.5
2019-05-18T07:25:51.732Z,14.3
2019-05-18T07:27:04.917Z,14.6
2019-05-18T07:28:18.873Z,14.7
2019-05-18T07:29:32.953Z,14.1
2019-05-18T07:30:47.165Z,14.3
2019-05-18T07:32:01.083Z,14.6
2019-05-18T07:33:15.151Z,14.8
2019-05-18T07:34:29.207Z,14.3
2019-05-18T07:35:43.359Z,13.7
2019-05-18T07:36:57.335Z,12.9
2019-05-18T07:38:11.406Z,13.4
2019-05-18T07:39:25.469Z,12.7
2019-05-18T07:40:39.520Z,12.7
2019-05-18T07:41:53.591Z,12.9
2019-05-18T07:43:07.677Z,12.6
2019-05-18T07:44:21.721Z,12.6
2019-05-18T07:45:35.783Z,12.9
2019-05-18T07:50:32.119Z,11.5
2019-05-18T07:51:46.123Z,13.1
2019-05-18T07:53:00.164Z,12.6
2019-05-18T07:54:14.338Z,14.6
2019-05-18T07:55:28.760Z,12.5
2019-05-18T07:56:42.375Z,14
2019-05-18T07:57:56.447Z,13.3
2019-05-18T08:00:24.619Z,13.6
2019-05-18T08:01:38.633Z,13.6
2019-05-18T08:02:52.826Z,13.6
2019-05-18T08:04:06.765Z,14
2019-05-18T08:05:20.803Z,14.2
2019-05-18T08:06:34.857Z,15.6
2019-05-18T08:07:48.915Z,14.5
2019-05-18T08:09:02.965Z,15.2
2019-05-18T08:10:17.172Z,14.2
2019-05-18T08:11:31.151Z,13.6
2019-05-18T08:12:45.206Z,13.9
2019-05-18T08:13:59.175Z,12.9
2019-05-18T08:15:13.287Z,14
2019-05-18T08:16:27.309Z,14
2019-05-18T08:17:41.352Z,13.6
2019-05-18T08:18:55.509Z,13.5
2019-05-18T08:20:09.460Z,13.7
2019-05-18T08:21:23.505Z,13.9
2019-05-18T08:22:37.639Z,13
2019-05-18T08:23:51.720Z,14
2019-05-18T08:25:11.666Z,13.4
2019-05-18T08:26:19.685Z,13.3
2019-05-18T08:27:33.750Z,13.3
2019-05-18T08:28:47.794Z,12.8
2019-05-18T08:30:01.811Z,13.5
2019-05-18T08:31:15.869Z,13.7
2019-05-18T08:32:29.997Z,14.2
2019-05-18T08:33:43.947Z,13.9
2019-05-18T08:34:58.058Z,13.6
2019-05-18T08:37:26.200Z,13.7
2019-05-18T08:38:40.178Z,13.5
2019-05-18T08:39:54.298Z,13.1
2019-05-18T08:41:08.272Z,13.5
2019-05-18T08:42:22.318Z,12
2019-05-18T08:43:36.582Z,12.7
2019-05-18T08:44:50.525Z,12.3
2019-05-18T08:46:04.471Z,10.7
2019-05-18T08:48:32.651Z,9.6
2019-05-18T08:49:46.600Z,10.3
2019-05-18T08:52:14.843Z,10.4
2019-05-18T08:53:28.797Z,9.4
2019-05-18T08:54:42.752Z,9.9
2019-05-18T08:55:56.895Z,9.7
2019-05-18T08:57:10.827Z,10.6
2019-05-18T08:58:24.892Z,9.3
2019-05-18T08:59:38.901Z,10.6
2019-05-18T09:00:53.043Z,10.5
2019-05-18T09:03:21.055Z,9
2019-05-18T09:04:35.002Z,9
2019-05-18T09:05:49.038Z,9.7
2019-05-18T09:07:03.143Z,9.2
2019-05-18T09:08:17.318Z,10.5
2019-05-18T09:10:45.170Z,10
2019-05-18T09:11:59.214Z,9.7
2019-05-18T09:13:13.319Z,8.5
2019-05-18T09:14:27.361Z,8.7
2019-05-18T09:16:55.606Z,8.2
2019-05-18T09:18:09.387Z,8.3
2019-05-18T09:19:23.415Z,7.6
2019-05-18T09:20:37.526Z,7.9
2019-05-18T09:21:51.539Z,7.4
2019-05-18T09:23:05.597Z,9.6
2019-05-18T09:24:19.641Z,8.6
2019-05-18T09:25:33.567Z,8.6
2019-05-18T09:26:47.615Z,8.6
2019-05-18T09:28:01.646Z,7.8
2019-05-18T09:29:15.759Z,8.4
2019-05-18T09:30:29.682Z,8.7
2019-05-18T09:31:43.714Z,10.1
2019-05-18T09:32:57.739Z,9.1
2019-05-18T09:34:11.758Z,8.1
2019-05-18T09:35:25.874Z,8.6
2019-05-18T09:36:39.805Z,7.7
2019-05-18T09:37:53.826Z,7.3
2019-05-18T09:39:07.981Z,7.1
2019-05-18T09:40:21.887Z,8.1
2019-05-18T09:41:35.975Z,8.4
2019-05-18T09:42:49.909Z,8.1
2019-05-18T09:44:04.018Z,8.1
2019-05-18T09:45:18.042Z,8.1
2019-05-18T09:46:32.073Z,8.3
2019-05-18T09:47:45.993Z,7.9
2019-05-18T09:49:00.052Z,7.8
2019-05-18T09:50:14.131Z,9.3
2019-05-18T09:51:31.351Z,8.9
2019-05-18T09:52:42.100Z,9.6
2019-05-18T09:53:56.206Z,8.8
2019-05-18T09:55:10.232Z,8.7
2019-05-18T09:56:24.168Z,9.4
2019-05-18T09:57:38.196Z,8.8
2019-05-18T09:58:52.210Z,8.8
2019-05-18T10:00:06.265Z,8.7
2019-05-18T10:02:34.243Z,8.7
2019-05-18T10:03:48.250Z,8.2
2019-05-18T10:05:02.262Z,8.4
2019-05-18T10:06:16.363Z,10.5
2019-05-18T10:07:30.285Z,11
2019-05-18T10:09:58.307Z,9.8
2019-05-18T10:12:26.343Z,9.5
2019-05-18T10:13:40.371Z,8.8
2019-05-18T10:14:54.494Z,8.4
2019-05-18T10:18:36.463Z,8.1
2019-05-18T10:19:50.420Z,7.8
2019-05-18T10:21:04.478Z,14
2019-05-18T10:22:18.426Z,8.1
2019-05-18T10:23:32.508Z,8
2019-05-18T10:24:46.434Z,7.4
2019-05-18T10:26:00.436Z,7.5
2019-05-18T10:27:14.426Z,8
2019-05-18T10:28:28.417Z,8.5
2019-05-18T10:29:42.504Z,8.1
2019-05-18T10:30:56.523Z,7.5
2019-05-18T10:32:10.411Z,7.5
2019-05-18T10:33:24.406Z,7.2
2019-05-18T10:34:38.431Z,7.7
2019-05-18T10:35:52.471Z,8.5
2019-05-18T10:38:20.627Z,8.2
2019-05-18T10:39:34.732Z,6.3
2019-05-18T10:40:48.742Z,7.9
2019-05-18T10:42:02.715Z,5.7
2019-05-18T10:43:16.793Z,6.7
2019-05-18T10:44:30.843Z,6.7
2019-05-18T10:45:44.922Z,8.3
2019-05-18T10:46:58.982Z,7.6
2019-05-18T10:48:13.094Z,9.6
2019-05-18T10:49:27.117Z,7.1
2019-05-18T10:50:41.274Z,7.4
2019-05-18T10:51:55.281Z,8.2
2019-05-18T10:53:09.330Z,7.9
2019-05-18T10:54:23.578Z,7.7
2019-05-18T10:55:37.483Z,7.7
2019-05-18T10:56:51.768Z,8.4
2019-05-18T10:58:05.617Z,7.9
2019-05-18T10:59:19.668Z,10
2019-05-18T11:00:33.746Z,11
2019-05-18T11:01:47.803Z,10.8
2019-05-18T11:03:01.876Z,9.9
2019-05-18T11:04:15.939Z,11
2019-05-18T11:05:29.991Z,11.5
2019-05-18T11:06:44.067Z,13.1
2019-05-18T11:09:12.222Z,10.2
2019-05-18T11:10:26.251Z,10.6
2019-05-18T11:11:40.337Z,10.2
2019-05-18T11:12:54.360Z,12.2
2019-05-18T11:15:22.428Z,10.4
2019-05-18T11:16:36.597Z,10.7
2019-05-18T11:17:50.431Z,10.9
2019-05-18T11:19:04.415Z,10.1
2019-05-18T11:20:18.465Z,10.3
2019-05-18T11:21:32.417Z,8.8
2019-05-18T11:22:46.427Z,8.7
2019-05-18T11:24:05.897Z,8.8
2019-05-18T11:25:14.494Z,7.9
2019-05-18T11:26:28.397Z,9.6
2019-05-18T11:27:42.379Z,8
2019-05-18T11:28:56.441Z,9.3
2019-05-18T11:30:10.391Z,9.2
2019-05-18T11:31:24.345Z,8.2
2019-05-18T11:32:38.329Z,8.5
2019-05-18T11:33:52.351Z,8.5
2019-05-18T11:35:06.356Z,8.7
2019-05-18T11:36:20.296Z,8.1
2019-05-18T11:37:34.327Z,8.1
2019-05-18T11:38:48.297Z,7.1
2019-05-18T11:40:02.267Z,9.8
2019-05-18T11:41:16.257Z,9.4
2019-05-18T11:42:31.038Z,8.6
2019-05-18T11:43:44.256Z,9.7
2019-05-18T11:44:58.263Z,9.5
2019-05-18T11:46:12.257Z,9.5
2019-05-18T11:47:26.309Z,8.6
2019-05-18T11:48:40.270Z,8.5
2019-05-18T11:49:54.430Z,7.7
2019-05-18T11:51:08.281Z,7.5
2019-05-18T11:52:22.313Z,8.6
2019-05-18T11:53:36.333Z,6.9
2019-05-18T11:54:50.367Z,7.1
2019-05-18T11:56:04.424Z,7.7
2019-05-18T11:57:18.455Z,7.3
2019-05-18T11:58:36.845Z,7.6
2019-05-18T12:01:00.565Z,8.2
2019-05-18T12:02:14.689Z,9.7
2019-05-18T12:03:28.736Z,9
2019-05-18T12:04:42.699Z,9.5
2019-05-18T12:05:56.760Z,8.4
2019-05-18T12:07:10.839Z,9.1
2019-05-18T12:08:24.896Z,8.5
2019-05-18T12:09:38.970Z,8.7
2019-05-18T12:10:53.072Z,9.6
2019-05-18T12:12:07.137Z,9.6
2019-05-18T12:13:21.308Z,8.7
2019-05-18T12:14:35.387Z,8.9
2019-05-18T12:15:49.488Z,8.5
2019-05-18T12:17:03.492Z,9.6
2019-05-18T12:19:31.726Z,8.4
2019-05-18T12:21:59.972Z,9.6
2019-05-18T12:23:13.908Z,8
2019-05-18T12:24:27.978Z,11.1
2019-05-18T12:25:42.069Z,8.6
2019-05-18T12:26:56.187Z,7.8
2019-05-18T12:28:10.250Z,7.8
2019-05-18T12:29:24.544Z,7
2019-05-18T12:30:38.668Z,6.7
2019-05-18T12:31:52.561Z,6.7
2019-05-18T12:33:06.689Z,5.9
2019-05-18T12:34:20.660Z,6.4
2019-05-18T12:35:34.727Z,6.6
2019-05-18T12:36:48.912Z,5.9
2019-05-18T12:38:02.909Z,5.9
2019-05-18T12:39:16.967Z,5.6
2019-05-18T12:40:31.038Z,5.7
2019-05-18T12:41:45.213Z,5.4
2019-05-18T12:42:59.198Z,4.9
2019-05-18T12:44:13.271Z,4.6
2019-05-18T12:45:27.324Z,4.9
2019-05-18T12:46:41.438Z,5.1
2019-05-18T12:47:55.520Z,5.3
2019-05-18T12:49:09.512Z,6.1
2019-05-18T12:50:23.558Z,5.4
2019-05-18T12:51:37.621Z,5
2019-05-18T12:52:51.822Z,4.8
2019-05-18T12:54:05.695Z,5.2
2019-05-18T12:55:19.697Z,4.3
2019-05-18T12:56:33.785Z,4.9
2019-05-18T12:57:47.743Z,4.3
2019-05-18T12:59:01.755Z,5.3
2019-05-18T13:00:15.791Z,4.8
2019-05-18T13:01:29.796Z,4.2
2019-05-18T13:02:43.806Z,4.8
2019-05-18T13:03:57.949Z,5.3
2019-05-18T13:05:11.938Z,5.5
2019-05-18T13:06:25.847Z,5.1
2019-05-18T13:07:39.877Z,4.6
2019-05-18T13:08:53.887Z,4.6
2019-05-18T13:10:07.898Z,4.7
2019-05-18T13:11:21.917Z,4.6
2019-05-18T13:12:35.923Z,4.5
2019-05-18T13:13:50.043Z,6.1
2019-05-18T13:15:03.962Z,4.8
2019-05-18T13:16:17.982Z,4.6
2019-05-18T13:17:31.985Z,5.6
2019-05-18T13:22:28.088Z,4.3
2019-05-18T13:23:42.145Z,4.1
2019-05-18T13:24:56.654Z,4.5
2019-05-18T13:26:10.154Z,4.1
2019-05-18T13:27:24.268Z,4.2
2019-05-18T13:28:38.412Z,4
2019-05-18T13:29:52.314Z,4.3
2019-05-18T13:31:06.267Z,5
2019-05-18T13:32:20.281Z,5
2019-05-18T13:33:34.321Z,4.5
2019-05-18T13:34:48.453Z,3.9
2019-05-18T13:36:02.403Z,3.6
2019-05-18T13:37:16.432Z,4.1
2019-05-18T13:38:30.469Z,3.4
2019-05-18T13:39:44.510Z,3.6
2019-05-18T13:40:58.557Z,3.5
2019-05-18T13:42:12.590Z,3.6
2019-05-18T13:43:26.733Z,3.5
2019-05-18T13:44:40.695Z,3.4
2019-05-18T13:45:54.766Z,3.2
2019-05-18T13:47:08.797Z,3.5
2019-05-18T13:48:22.965Z,4.2
2019-05-18T13:49:37.001Z,4.8
2019-05-18T13:50:51.009Z,3.6
2019-05-18T13:52:05.031Z,3.4
2019-05-18T13:53:19.101Z,4.6
2019-05-18T13:54:33.175Z,3
2019-05-18T13:55:47.220Z,3.3
2019-05-18T13:57:01.285Z,3.8
2019-05-18T13:58:15.352Z,3.2
2019-05-18T13:59:29.445Z,3
2019-05-18T14:00:43.449Z,2.7
2019-05-18T14:01:57.511Z,3.1
2019-05-18T14:03:11.577Z,3.3
2019-05-18T14:04:25.630Z,3.3
2019-05-18T14:06:53.817Z,3.1
2019-05-18T14:08:07.832Z,3.2
2019-05-18T14:09:21.867Z,3
2019-05-18T14:10:35.916Z,3.5
2019-05-18T14:11:51.134Z,4.6
2019-05-18T14:13:04.034Z,3.4
2019-05-18T14:14:17.974Z,3.5
2019-05-18T14:15:32.013Z,4.2
2019-05-18T14:16:46.059Z,3.9
2019-05-18T14:18:00.124Z,3.4
2019-05-18T14:19:14.102Z,3.7
2019-05-18T14:20:28.217Z,4
2019-05-18T14:21:42.181Z,4.5
2019-05-18T14:22:56.219Z,4.2
2019-05-18T14:24:10.297Z,4
2019-05-18T14:25:24.303Z,3.8
2019-05-18T14:26:38.339Z,4
2019-05-18T14:27:52.470Z,4.1
2019-05-18T14:29:06.733Z,5.8
2019-05-18T14:30:20.473Z,4.1
2019-05-18T14:31:34.620Z,4.1
2019-05-18T14:32:50.446Z,3.9
2019-05-18T14:34:03.489Z,3.8
2019-05-18T14:35:16.701Z,4.4
2019-05-18T14:36:30.670Z,4.5
2019-05-18T14:37:44.663Z,4.5
2019-05-18T14:38:58.755Z,4
2019-05-18T14:40:12.792Z,3.5
2019-05-18T14:41:26.752Z,3.4
2019-05-18T14:42:40.849Z,3.8
2019-05-18T14:43:54.787Z,3.9
2019-05-18T14:45:08.829Z,3.5
2019-05-18T14:46:22.888Z,3.6
2019-05-18T14:47:36.877Z,4.1
2019-05-18T14:50:05.066Z,4.3
2019-05-18T14:51:18.990Z,4.5
2019-05-18T14:52:36.238Z,3.6
2019-05-18T14:53:47.144Z,4.7
2019-05-18T14:55:01.118Z,4.1
2019-05-18T14:56:16.804Z,4.1
2019-05-18T14:57:29.186Z,3.9
2019-05-18T14:59:57.241Z,3.7
2019-05-18T15:02:25.395Z,3.9
2019-05-18T15:03:39.343Z,4
2019-05-18T15:06:07.413Z,3.6
2019-05-18T15:07:21.676Z,3.4
2019-05-18T15:08:35.476Z,3.4
2019-05-18T15:09:51.612Z,3.4
2019-05-18T15:11:07.477Z,4.5
2019-05-18T15:12:21.325Z,3.7
2019-05-18T15:13:31.626Z,4.7
2019-05-18T15:14:45.678Z,3.8
2019-05-18T15:15:59.708Z,3.7
2019-05-18T15:17:13.751Z,4.2
2019-05-18T15:18:27.876Z,3.8
2019-05-18T15:19:41.936Z,4.1
2019-05-18T15:20:55.866Z,3.6
2019-05-18T15:22:09.910Z,3.7
2019-05-18T15:23:23.944Z,3.4
2019-05-18T15:24:38.004Z,3.6
2019-05-18T15:27:06.136Z,3.2
2019-05-18T15:28:20.097Z,3.4
2019-05-18T15:29:34.125Z,3.8
2019-05-18T15:30:50.741Z,3.4
2019-05-18T15:32:03.995Z,3
2019-05-18T15:34:30.285Z,2.9
2019-05-18T15:35:44.327Z,3.8
2019-05-18T15:36:58.438Z,3.8
2019-05-18T15:38:12.444Z,3.4
2019-05-18T15:39:26.435Z,2.8
2019-05-18T15:40:40.462Z,3
2019-05-18T15:41:54.517Z,3.2
2019-05-18T15:43:08.547Z,5.2
2019-05-18T15:44:22.610Z,3.6
2019-05-18T15:45:36.712Z,3.9
2019-05-18T15:46:50.676Z,3.9
2019-05-18T15:48:04.687Z,3.2
2019-05-18T15:49:18.744Z,3.1
2019-05-18T15:50:34.060Z,2.8
2019-05-18T15:51:46.787Z,4.6
2019-05-18T15:53:00.828Z,3.2
2019-05-18T15:54:14.855Z,3.5
2019-05-18T15:55:31.319Z,2.9
2019-05-18T15:56:42.932Z,3.1
2019-05-18T15:57:56.972Z,3
2019-05-18T15:59:11.026Z,3.2
2019-05-18T16:00:25.088Z,3.2
2019-05-18T16:01:39.129Z,3.6
2019-05-18T16:02:53.160Z,3.2
2019-05-18T16:04:07.221Z,3.1
2019-05-18T16:05:21.333Z,3.2
2019-05-18T16:06:35.349Z,3.1
2019-05-18T16:07:49.427Z,2.8
2019-05-18T16:09:03.474Z,3
2019-05-18T16:10:17.531Z,3.1
2019-05-18T16:11:31.733Z,3.4
2019-05-18T16:12:45.667Z,3.2
2019-05-18T16:13:59.746Z,3.4
2019-05-18T16:15:13.824Z,3.7
2019-05-18T16:16:27.974Z,3.2
2019-05-18T16:17:42.002Z,3.1
2019-05-18T16:18:56.159Z,3.6
2019-05-18T16:20:10.238Z,3.2
2019-05-18T16:21:24.241Z,3.3
2019-05-18T16:22:38.330Z,3
2019-05-18T16:23:52.447Z,3.3
2019-05-18T16:25:06.858Z,3.1
2019-05-18T16:26:20.598Z,3
2019-05-18T16:27:34.659Z,3.7
2019-05-18T16:28:48.729Z,4.1
2019-05-18T16:30:06.364Z,3.7
2019-05-18T16:31:16.953Z,3.6
2019-05-18T16:32:30.945Z,3.6
2019-05-18T16:33:45.021Z,3.5
2019-05-18T16:34:59.224Z,4.3
2019-05-18T16:36:13.134Z,3.2
2019-05-18T16:37:27.194Z,3
2019-05-18T16:38:41.265Z,2.9
2019-05-18T16:39:55.339Z,3
2019-05-18T16:41:09.508Z,4.1
2019-05-18T16:42:23.484Z,3
2019-05-18T16:43:37.610Z,2.8
2019-05-18T16:44:51.692Z,2.7
2019-05-18T16:46:05.787Z,3
2019-05-18T16:47:19.792Z,2.6
2019-05-18T16:48:33.870Z,2.6
2019-05-18T16:49:47.965Z,3.4
2019-05-18T16:51:02.033Z,3.3
2019-05-18T16:52:16.132Z,2.7
2019-05-18T16:53:30.251Z,3.3
2019-05-18T16:54:47.609Z,2.8
2019-05-18T16:55:58.542Z,3.1
2019-05-18T16:57:12.489Z,3.7
2019-05-18T16:58:26.583Z,2.8
2019-05-18T17:00:54.864Z,2.7
2019-05-18T17:02:08.921Z,2.7
2019-05-18T17:03:23.121Z,2.7
2019-05-18T17:04:37.068Z,3.3
2019-05-18T17:05:51.194Z,3.6
2019-05-18T17:07:05.286Z,3.1
2019-05-18T17:08:19.498Z,2.9
2019-05-18T17:09:33.593Z,3
2019-05-18T17:10:47.600Z,3
2019-05-18T17:12:01.710Z,3.2
2019-05-18T17:13:15.878Z,2.7
2019-05-18T17:14:29.929Z,3.2
2019-05-18T17:15:44.152Z,3.4
2019-05-18T17:16:58.158Z,2.6
2019-05-18T17:18:12.419Z,4.4
2019-05-18T17:19:26.437Z,2.8
2019-05-18T17:20:40.527Z,3
2019-05-18T17:21:54.726Z,2.9
2019-05-18T17:23:08.722Z,2.8
2019-05-18T17:26:52.010Z,3.1
2019-05-18T17:28:05.405Z,3.3
2019-05-18T17:29:19.304Z,3.6
2019-05-18T17:30:33.504Z,3.6
2019-05-18T17:31:47.529Z,3.1
2019-05-18T17:33:01.708Z,3.4
2019-05-18T17:34:15.875Z,4.6
2019-05-18T17:35:29.878Z,3.5
2019-05-18T17:36:44.014Z,3.4
2019-05-18T17:37:58.202Z,3.2
2019-05-18T17:39:12.233Z,3